Terminal Aerodrome Forecast
Issued by NWS Jackson, MS

Home | Current Version | Previous Version | Text Only | Print | Product List | Glossary On
Versions: 1 2 3 4 5 6 7 8 9 10 11 12 13 14
247
FTUS44 KJAN 251722
TAFGLH
TAF
KGLH 251722Z 2518/2618 15006KT P6SM VCTS SCT050CB
     FM260200 00000KT 6SM BR SCT250
     FM261000 00000KT 4SM BR SKC
     FM261400 06004KT P6SM SCT250=

USA.gov is the U.S. government's official web portal to all federal, state and local government web resources and services.